Time;durP1;ratioP1;P1;durP2;ratioP2;P2;SDS_P1;SDS_P2;PMS_P1;PMS_P2;Temp;Humidity;BMP_temperature;BMP_pressure;BME280_temperature;BME280_humidity;BME280_pressure;Samples;Min_cycle;Max_cycle;Signal;HPM_P1;HPM_P2
2024/01/13 00:01:12;;;;;;;;;;;17.00;60.30;;;;;;7317772;19;9291;-66
2024/01/13 00:03:41;;;;;;;;;;;17.00;59.80;;;;;;7319298;19;9268;-66
2024/01/13 00:06:30;;;;;;;;;;;17.00;59.80;;;;;;7316329;19;9232;-66
2024/01/13 00:08:59;;;;;;;;;;;16.90;59.70;;;;;;7322476;19;9266;-66
2024/01/13 00:11:28;;;;;;;;;;;16.90;59.70;;;;;;7324265;19;10059;-66
2024/01/13 00:13:57;;;;;;;;;;;16.90;59.70;;;;;;7324276;19;9544;-66
2024/01/13 00:16:29;;;;;;;;;;;16.90;59.70;;;;;;7324936;19;9254;-63
2024/01/13 00:18:57;;;;;;;;;;;16.90;59.70;;;;;;7326083;19;9273;-64
2024/01/13 00:21:26;;;;;;;;;;;16.90;59.70;;;;;;7326386;19;9489;-63
2024/01/13 00:23:56;;;;;;;;;;;16.90;59.70;;;;;;7326668;19;9289;-64
2024/01/13 00:26:25;;;;;;;;;;;16.90;59.70;;;;;;7327320;19;9198;-64
2024/01/13 00:28:54;;;;;;;;;;;16.90;59.80;;;;;;7326635;19;9883;-64
2024/01/13 00:31:23;;;;;;;;;;;16.90;59.70;;;;;;7325055;19;9750;-64
2024/01/13 00:33:54;;;;;;;;;;;16.90;59.70;;;;;;7325387;19;11042;-64
2024/01/13 00:36:24;;;;;;;;;;;16.90;59.80;;;;;;7324393;19;10195;-65
2024/01/13 00:38:53;;;;;;;;;;;16.90;59.80;;;;;;7325758;19;9265;-65
2024/01/13 00:41:22;;;;;;;;;;;16.90;59.80;;;;;;7323309;19;9740;-64
2024/01/13 00:43:52;;;;;;;;;;;16.90;59.80;;;;;;7324481;19;9461;-65
2024/01/13 00:46:21;;;;;;;;;;;16.90;59.70;;;;;;7323974;19;9023;-64
2024/01/13 00:48:49;;;;;;;;;;;16.90;59.70;;;;;;7324144;19;9399;-64
2024/01/13 00:51:21;;;;;;;;;;;16.90;59.70;;;;;;7323385;19;9207;-64
2024/01/13 00:53:50;;;;;;;;;;;16.90;59.70;;;;;;7324699;19;9572;-64
2024/01/13 00:56:19;;;;;;;;;;;16.90;59.70;;;;;;7323267;19;10116;-64
2024/01/13 00:58:48;;;;;;;;;;;16.90;59.70;;;;;;7324128;19;9190;-64
2024/01/13 01:01:17;;;;;;;;;;;16.90;59.60;;;;;;7323498;19;10245;-64
2024/01/13 01:03:46;;;;;;;;;;;16.90;59.70;;;;;;7324440;19;9350;-64
2024/01/13 01:06:16;;;;;;;;;;;16.90;59.70;;;;;;7321632;19;10671;-64
2024/01/13 01:08:47;;;;;;;;;;;16.90;59.70;;;;;;7323164;19;9522;-64
2024/01/13 01:11:17;;;;;;;;;;;16.90;59.70;;;;;;7322835;19;9373;-64
2024/01/13 01:13:45;;;;;;;;;;;16.90;59.70;;;;;;7322696;19;9361;-64
2024/01/13 01:16:14;;;;;;;;;;;16.90;59.70;;;;;;7323703;19;9163;-64
2024/01/13 01:18:43;;;;;;;;;;;16.80;59.60;;;;;;7320448;19;9298;-64
2024/01/13 01:21:13;;;;;;;;;;;16.80;59.70;;;;;;7322260;19;9245;-65
2024/01/13 01:24:05;;;;;;;;;;;16.80;59.60;;;;;;7321090;19;9539;-65
2024/01/13 01:26:34;;;;;;;;;;;16.80;59.60;;;;;;7322952;19;9204;-64
2024/01/13 01:29:03;;;;;;;;;;;16.80;59.70;;;;;;7323752;19;9454;-64
2024/01/13 01:31:32;;;;;;;;;;;16.80;59.60;;;;;;7322441;19;9235;-65
2024/01/13 01:34:01;;;;;;;;;;;16.80;59.70;;;;;;7323923;19;9172;-64
2024/01/13 01:36:31;;;;;;;;;;;16.80;59.70;;;;;;7322715;19;9239;-64
2024/01/13 01:39:00;;;;;;;;;;;16.80;59.70;;;;;;7322819;19;9237;-64
2024/01/13 01:41:33;;;;;;;;;;;16.80;59.70;;;;;;7320480;19;9186;-64
2024/01/13 01:44:02;;;;;;;;;;;16.80;59.70;;;;;;7322965;19;9293;-64
2024/01/13 01:46:33;;;;;;;;;;;16.80;59.70;;;;;;7322737;19;9580;-64
2024/01/13 01:49:03;;;;;;;;;;;16.80;59.70;;;;;;7324791;19;9204;-65
2024/01/13 01:51:33;;;;;;;;;;;16.70;59.60;;;;;;7322320;19;9508;-65
2024/01/13 01:54:03;;;;;;;;;;;16.70;59.70;;;;;;7322967;19;9147;-64
2024/01/13 01:56:37;;;;;;;;;;;16.70;59.70;;;;;;7322677;19;9230;-65
2024/01/13 01:59:07;;;;;;;;;;;16.70;59.70;;;;;;7321736;19;10230;-64
2024/01/13 02:01:36;;;;;;;;;;;16.70;59.60;;;;;;7323248;19;9565;-64
2024/01/13 02:04:25;;;;;;;;;;;16.70;59.70;;;;;;7318612;19;9248;-64
2024/01/13 02:06:55;;;;;;;;;;;16.70;59.70;;;;;;7322458;19;10753;-64
2024/01/13 02:09:24;;;;;;;;;;;16.70;59.60;;;;;;7320809;19;9468;-64
2024/01/13 02:11:56;;;;;;;;;;;16.70;59.70;;;;;;7320701;19;9413;-64
2024/01/13 02:14:25;;;;;;;;;;;16.70;59.70;;;;;;7321288;19;9217;-64
2024/01/13 02:16:55;;;;;;;;;;;16.70;59.70;;;;;;7321707;19;9167;-64
2024/01/13 02:19:24;;;;;;;;;;;16.70;59.80;;;;;;7321599;19;9321;-65
2024/01/13 02:21:56;;;;;;;;;;;16.70;59.80;;;;;;7321097;19;9562;-65
2024/01/13 02:24:25;;;;;;;;;;;16.70;59.70;;;;;;7322127;19;9265;-64
2024/01/13 02:26:54;;;;;;;;;;;16.70;59.70;;;;;;7321068;19;11595;-65
2024/01/13 02:29:22;;;;;;;;;;;16.70;59.60;;;;;;7321814;19;9233;-64
2024/01/13 02:31:51;;;;;;;;;;;16.70;59.60;;;;;;7318347;19;10746;-64
2024/01/13 02:34:20;;;;;;;;;;;16.70;59.60;;;;;;7321608;19;9721;-64
2024/01/13 02:36:50;;;;;;;;;;;16.70;59.60;;;;;;7320930;19;12497;-65
2024/01/13 02:39:21;;;;;;;;;;;16.70;59.50;;;;;;7321660;19;9305;-64
2024/01/13 02:41:50;;;;;;;;;;;16.70;59.50;;;;;;7320069;19;9242;-64
2024/01/13 02:44:19;;;;;;;;;;;16.70;59.50;;;;;;7321444;19;9254;-64
2024/01/13 02:46:48;;;;;;;;;;;16.70;59.60;;;;;;7320947;19;9207;-65
2024/01/13 02:49:18;;;;;;;;;;;16.70;59.50;;;;;;7320780;19;9391;-65
2024/01/13 02:51:47;;;;;;;;;;;16.70;59.50;;;;;;7319443;19;9538;-64
2024/01/13 02:54:39;;;;;;;;;;;16.60;60.10;;;;;;7319273;19;9501;-64
2024/01/13 02:57:08;;;;;;;;;;;16.60;59.60;;;;;;7319018;19;9265;-65
2024/01/13 02:59:36;;;;;;;;;;;16.60;59.50;;;;;;7319512;19;9135;-65
2024/01/13 03:02:06;;;;;;;;;;;16.70;59.60;;;;;;7321149;19;9995;-65
2024/01/13 03:04:35;;;;;;;;;;;16.60;59.60;;;;;;7319660;19;9319;-65
2024/01/13 03:07:23;;;;;;;;;;;16.60;59.60;;;;;;7317335;19;9280;-65
2024/01/13 03:09:55;;;;;;;;;;;16.60;59.50;;;;;;7320273;19;9429;-65
2024/01/13 03:12:24;;;;;;;;;;;16.60;59.60;;;;;;7318714;19;9484;-65
2024/01/13 03:14:53;;;;;;;;;;;16.60;59.50;;;;;;7320727;19;9519;-65
2024/01/13 03:17:22;;;;;;;;;;;16.60;59.50;;;;;;7318505;19;9275;-65
2024/01/13 03:19:51;;;;;;;;;;;16.60;59.50;;;;;;7320473;19;9342;-65
2024/01/13 03:22:39;;;;;;;;;;;16.60;59.60;;;;;;7317385;19;9517;-65
2024/01/13 03:25:11;;;;;;;;;;;16.60;59.50;;;;;;7319089;19;9431;-65
2024/01/13 03:27:40;;;;;;;;;;;16.60;59.60;;;;;;7320662;19;10452;-64
2024/01/13 03:30:10;;;;;;;;;;;16.60;59.50;;;;;;7318708;19;10259;-65
2024/01/13 03:32:39;;;;;;;;;;;16.60;59.60;;;;;;7320103;19;9213;-65
2024/01/13 03:35:10;;;;;;;;;;;16.50;59.60;;;;;;7318499;19;9231;-64
2024/01/13 03:37:40;;;;;;;;;;;16.60;59.50;;;;;;7320100;19;9462;-64
2024/01/13 03:40:12;;;;;;;;;;;16.50;59.50;;;;;;7318904;19;9283;-65
2024/01/13 03:42:41;;;;;;;;;;;16.60;59.60;;;;;;7317136;19;11119;-64
2024/01/13 03:45:11;;;;;;;;;;;16.60;59.60;;;;;;7318993;19;9250;-65
2024/01/13 03:47:39;;;;;;;;;;;16.60;59.60;;;;;;7319487;19;9442;-65
2024/01/13 03:50:10;;;;;;;;;;;16.50;59.60;;;;;;7319721;19;9270;-65
2024/01/13 03:52:39;;;;;;;;;;;16.60;59.60;;;;;;7317301;19;9545;-65
2024/01/13 03:55:12;;;;;;;;;;;16.50;59.40;;;;;;7319748;19;9224;-65
2024/01/13 03:57:40;;;;;;;;;;;16.50;59.50;;;;;;7317670;19;9227;-65
2024/01/13 04:00:11;;;;;;;;;;;16.50;59.50;;;;;;7315748;19;9277;-65
2024/01/13 04:02:40;;;;;;;;;;;16.50;59.50;;;;;;7319303;19;9202;-65
2024/01/13 04:05:09;;;;;;;;;;;16.50;59.50;;;;;;7317994;19;9302;-65
2024/01/13 04:07:38;;;;;;;;;;;16.50;59.40;;;;;;7318440;19;9205;-64
2024/01/13 04:10:08;;;;;;;;;;;16.50;59.40;;;;;;7318866;19;9468;-65
2024/01/13 04:12:43;;;;;;;;;;;16.50;59.40;;;;;;7318936;19;9261;-65
2024/01/13 04:15:13;;;;;;;;;;;16.50;59.40;;;;;;7317664;19;9124;-64
2024/01/13 04:17:43;;;;;;;;;;;16.50;59.40;;;;;;7318022;19;10546;-66
2024/01/13 04:20:12;;;;;;;;;;;16.50;59.40;;;;;;7317679;19;10337;-64
2024/01/13 04:22:41;;;;;;;;;;;16.50;59.30;;;;;;7319794;19;11190;-65
2024/01/13 04:25:10;;;;;;;;;;;16.50;59.40;;;;;;7317500;19;9394;-65
2024/01/13 04:27:42;;;;;;;;;;;16.50;59.40;;;;;;7319196;19;9482;-65
2024/01/13 04:30:12;;;;;;;;;;;16.50;59.40;;;;;;7316879;19;10904;-64
2024/01/13 04:32:42;;;;;;;;;;;16.50;59.30;;;;;;7319036;19;9125;-65
2024/01/13 04:35:31;;;;;;;;;;;16.50;59.40;;;;;;7316251;19;9351;-64
2024/01/13 04:38:01;;;;;;;;;;;16.50;59.40;;;;;;7318603;19;9774;-65
2024/01/13 04:40:36;;;;;;;;;;;16.50;59.30;;;;;;7316264;19;9246;-64
2024/01/13 04:43:08;;;;;;;;;;;16.50;59.40;;;;;;7318172;19;9173;-65
2024/01/13 04:45:36;;;;;;;;;;;16.50;59.40;;;;;;7314782;19;9531;-65
2024/01/13 04:48:06;;;;;;;;;;;16.50;59.40;;;;;;7316540;19;9510;-65
2024/01/13 04:50:35;;;;;;;;;;;16.40;59.30;;;;;;7317194;19;9485;-65
2024/01/13 04:53:04;;;;;;;;;;;16.50;59.40;;;;;;7316643;19;9221;-65
2024/01/13 04:55:32;;;;;;;;;;;16.50;59.40;;;;;;7323607;19;9352;-65
2024/01/13 04:58:01;;;;;;;;;;;16.40;59.30;;;;;;7323139;19;9474;-65
2024/01/13 05:00:34;;;;;;;;;;;16.40;59.30;;;;;;7324642;19;9166;-64
2024/01/13 05:03:03;;;;;;;;;;;16.40;59.40;;;;;;7323280;19;9306;-65
2024/01/13 05:05:32;;;;;;;;;;;16.40;59.40;;;;;;7323412;19;9263;-64
2024/01/13 05:08:01;;;;;;;;;;;16.40;59.40;;;;;;7321061;19;10632;-65
2024/01/13 05:10:50;;;;;;;;;;;16.40;59.30;;;;;;7322004;19;9511;-64
2024/01/13 05:13:19;;;;;;;;;;;16.40;59.30;;;;;;7323079;19;9525;-65
2024/01/13 05:15:51;;;;;;;;;;;16.30;59.40;;;;;;7323938;19;9204;-65
2024/01/13 05:18:20;;;;;;;;;;;16.40;59.40;;;;;;7324571;19;10356;-65
2024/01/13 05:20:48;;;;;;;;;;;16.40;59.50;;;;;;7322046;19;9744;-65
2024/01/13 05:23:17;;;;;;;;;;;16.40;59.40;;;;;;7322994;19;9654;-65
2024/01/13 05:25:46;;;;;;;;;;;16.30;59.40;;;;;;7321633;19;9486;-65
2024/01/13 05:28:15;;;;;;;;;;;16.30;59.40;;;;;;7324061;19;9412;-65
2024/01/13 05:30:44;;;;;;;;;;;16.30;59.40;;;;;;7320585;19;9401;-65
2024/01/13 05:33:17;;;;;;;;;;;16.30;59.40;;;;;;7323599;19;9142;-65
2024/01/13 05:35:45;;;;;;;;;;;16.30;59.40;;;;;;7322222;19;9202;-65
2024/01/13 05:38:15;;;;;;;;;;;16.30;60.00;;;;;;7323094;19;10466;-64
2024/01/13 05:40:44;;;;;;;;;;;16.30;59.40;;;;;;7322188;19;9513;-65
2024/01/13 05:43:13;;;;;;;;;;;16.30;59.40;;;;;;7324180;19;9607;-65
2024/01/13 05:45:43;;;;;;;;;;;16.30;59.40;;;;;;7321689;19;10701;-64
2024/01/13 05:48:11;;;;;;;;;;;16.30;59.40;;;;;;7323883;19;9541;-65
2024/01/13 05:50:43;;;;;;;;;;;16.30;59.30;;;;;;7322817;19;9486;-64
2024/01/13 05:53:12;;;;;;;;;;;16.30;59.30;;;;;;7321937;19;9567;-65
2024/01/13 05:55:42;;;;;;;;;;;16.30;59.40;;;;;;7322249;19;9135;-65
2024/01/13 05:58:11;;;;;;;;;;;16.30;59.30;;;;;;7321698;19;9433;-65
2024/01/13 06:00:40;;;;;;;;;;;16.30;59.40;;;;;;7322876;19;9282;-65
2024/01/13 06:03:09;;;;;;;;;;;16.30;59.40;;;;;;7322059;19;10845;-65
2024/01/13 06:06:00;;;;;;;;;;;16.30;59.20;;;;;;7318515;19;10162;-65
2024/01/13 06:08:29;;;;;;;;;;;16.30;59.30;;;;;;7322567;19;9263;-65
2024/01/13 06:10:58;;;;;;;;;;;16.30;59.30;;;;;;7322228;19;9550;-64
2024/01/13 06:13:27;;;;;;;;;;;16.30;59.20;;;;;;7321623;19;10284;-65
2024/01/13 06:15:53;;;;;;;;;;;16.30;59.10;;;;;;7321955;19;10596;-65
2024/01/13 06:18:22;;;;;;;;;;;16.30;59.10;;;;;;7322512;19;9194;-65
2024/01/13 06:20:51;;;;;;;;;;;16.40;59.10;;;;;;7321944;19;9226;-65
2024/01/13 06:23:22;;;;;;;;;;;16.40;59.10;;;;;;7323069;19;9175;-65
2024/01/13 06:25:51;;;;;;;;;;;16.50;58.90;;;;;;7322673;19;9218;-66
2024/01/13 06:28:20;;;;;;;;;;;16.50;58.80;;;;;;7323403;19;9119;-65
2024/01/13 06:30:49;;;;;;;;;;;16.60;58.80;;;;;;7322085;19;9141;-65
2024/01/13 06:33:18;;;;;;;;;;;16.70;58.80;;;;;;7323106;19;10145;-65
2024/01/13 06:35:47;;;;;;;;;;;16.70;58.80;;;;;;7322120;19;9514;-66
2024/01/13 06:38:17;;;;;;;;;;;16.80;58.70;;;;;;7322135;19;9570;-65
2024/01/13 06:40:48;;;;;;;;;;;16.90;58.60;;;;;;7321505;19;9329;-65
2024/01/13 06:43:17;;;;;;;;;;;17.00;58.60;;;;;;7321432;19;9141;-64
2024/01/13 06:45:46;;;;;;;;;;;17.00;58.50;;;;;;7321426;19;9495;-65
2024/01/13 06:48:15;;;;;;;;;;;17.10;58.50;;;;;;7322623;19;9305;-65
2024/01/13 06:50:44;;;;;;;;;;;17.10;58.30;;;;;;7321887;19;11820;-65
2024/01/13 06:53:13;;;;;;;;;;;17.20;58.30;;;;;;7320918;19;9747;-65
2024/01/13 06:55:42;;;;;;;;;;;17.20;58.10;;;;;;7320852;19;9594;-65
2024/01/13 06:58:14;;;;;;;;;;;17.30;58.10;;;;;;7320200;19;9430;-65
2024/01/13 07:00:42;;;;;;;;;;;17.30;57.90;;;;;;7321279;19;9265;-65
2024/01/13 07:03:11;;;;;;;;;;;17.30;58.00;;;;;;7319338;19;9249;-65
2024/01/13 07:05:40;;;;;;;;;;;17.30;57.80;;;;;;7319886;19;9133;-65
2024/01/13 07:08:09;;;;;;;;;;;17.30;57.80;;;;;;7319378;19;9440;-64
2024/01/13 07:10:38;;;;;;;;;;;17.30;57.80;;;;;;7320626;19;9150;-65
2024/01/13 07:13:07;;;;;;;;;;;17.30;57.70;;;;;;7318766;19;9515;-65
2024/01/13 07:15:39;;;;;;;;;;;17.30;57.70;;;;;;7320905;19;10771;-65
2024/01/13 07:18:07;;;;;;;;;;;17.30;57.70;;;;;;7316236;19;9639;-65
2024/01/13 07:20:36;;;;;;;;;;;17.20;57.70;;;;;;7318338;19;11453;-64
2024/01/13 07:23:06;;;;;;;;;;;17.20;57.70;;;;;;7319517;19;9146;-65
2024/01/13 07:25:35;;;;;;;;;;;17.20;57.90;;;;;;7320005;19;9702;-65
2024/01/13 07:28:04;;;;;;;;;;;17.20;57.80;;;;;;7319765;19;9222;-65
2024/01/13 07:30:33;;;;;;;;;;;17.10;58.60;;;;;;7318738;19;9243;-65
2024/01/13 07:33:05;;;;;;;;;;;17.10;57.90;;;;;;7319962;19;9337;-65
2024/01/13 07:35:34;;;;;;;;;;;17.10;58.00;;;;;;7318750;19;9670;-65
2024/01/13 07:38:03;;;;;;;;;;;17.00;58.00;;;;;;7318706;19;9229;-65
2024/01/13 07:40:33;;;;;;;;;;;17.00;58.10;;;;;;7319309;19;9309;-65
2024/01/13 07:43:02;;;;;;;;;;;16.90;58.10;;;;;;7320352;19;9291;-64
2024/01/13 07:45:30;;;;;;;;;;;16.90;58.20;;;;;;7318352;19;9488;-65
2024/01/13 07:47:59;;;;;;;;;;;16.90;58.30;;;;;;7319935;19;9721;-65
2024/01/13 07:50:31;;;;;;;;;;;16.80;58.30;;;;;;7318852;19;9434;-64
2024/01/13 07:53:00;;;;;;;;;;;16.80;58.40;;;;;;7319789;19;9496;-65
2024/01/13 07:55:29;;;;;;;;;;;16.80;58.40;;;;;;7317633;19;9211;-65
2024/01/13 07:58:18;;;;;;;;;;;16.80;58.50;;;;;;7317139;19;9226;-65
2024/01/13 08:00:47;;;;;;;;;;;16.70;58.50;;;;;;7319550;19;9192;-65
2024/01/13 08:03:16;;;;;;;;;;;16.70;58.50;;;;;;7318730;19;9434;-65
2024/01/13 08:05:48;;;;;;;;;;;16.70;58.60;;;;;;7319906;19;9627;-65
2024/01/13 08:08:17;;;;;;;;;;;16.70;58.70;;;;;;7318775;19;9398;-65
2024/01/13 08:10:46;;;;;;;;;;;16.70;58.60;;;;;;7318517;19;9716;-65
2024/01/13 08:13:17;;;;;;;;;;;16.60;58.70;;;;;;7317595;19;10368;-65
2024/01/13 08:15:46;;;;;;;;;;;16.60;58.70;;;;;;7319482;19;9389;-65
2024/01/13 08:18:15;;;;;;;;;;;16.60;58.70;;;;;;7318997;19;9225;-65
2024/01/13 08:20:44;;;;;;;;;;;16.60;58.70;;;;;;7317640;19;9290;-65
2024/01/13 08:23:15;;;;;;;;;;;16.60;58.70;;;;;;7319954;19;9286;-65
2024/01/13 08:25:44;;;;;;;;;;;16.60;58.80;;;;;;7317332;19;9410;-65
2024/01/13 08:28:13;;;;;;;;;;;16.50;58.80;;;;;;7317898;19;9629;-65
2024/01/13 08:30:42;;;;;;;;;;;16.60;58.90;;;;;;7324969;19;9224;-65
2024/01/13 08:33:11;;;;;;;;;;;16.50;58.80;;;;;;7325656;19;9218;-65
2024/01/13 08:35:40;;;;;;;;;;;16.50;58.90;;;;;;7323808;19;9200;-65
2024/01/13 08:38:32;;;;;;;;;;;16.50;58.90;;;;;;7323880;19;9252;-65
2024/01/13 08:41:01;;;;;;;;;;;16.50;58.90;;;;;;7324452;19;9405;-65
2024/01/13 08:43:30;;;;;;;;;;;16.40;58.90;;;;;;7324648;19;9172;-64
2024/01/13 08:45:59;;;;;;;;;;;16.40;58.90;;;;;;7322677;19;9143;-64
2024/01/13 08:48:28;;;;;;;;;;;16.40;58.90;;;;;;7323884;19;9173;-64
2024/01/13 08:50:57;;;;;;;;;;;16.40;58.90;;;;;;7325101;19;9202;-64
2024/01/13 08:53:27;;;;;;;;;;;16.40;58.90;;;;;;7322774;19;9452;-65
2024/01/13 08:55:58;;;;;;;;;;;16.40;58.90;;;;;;7324900;19;9353;-66
2024/01/13 08:58:27;;;;;;;;;;;16.40;58.90;;;;;;7323524;19;9132;-65
2024/01/13 09:00:56;;;;;;;;;;;16.40;59.60;;;;;;7323940;19;9298;-65
2024/01/13 09:03:25;;;;;;;;;;;16.40;58.90;;;;;;7322788;19;9245;-65
2024/01/13 09:05:54;;;;;;;;;;;16.30;58.90;;;;;;7324424;19;9283;-65
2024/01/13 09:08:23;;;;;;;;;;;16.30;58.90;;;;;;7323244;19;9340;-64
2024/01/13 09:10:52;;;;;;;;;;;16.30;58.90;;;;;;7324271;19;9450;-64
2024/01/13 09:13:24;;;;;;;;;;;16.30;58.90;;;;;;7322787;19;9468;-65
2024/01/13 09:15:53;;;;;;;;;;;16.30;58.80;;;;;;7323390;19;9473;-65
2024/01/13 09:18:22;;;;;;;;;;;16.30;59.00;;;;;;7324740;19;9193;-65
2024/01/13 09:20:51;;;;;;;;;;;16.30;58.90;;;;;;7322215;19;9249;-65
2024/01/13 09:23:20;;;;;;;;;;;16.30;58.80;;;;;;7323946;19;9464;-65
2024/01/13 09:25:49;;;;;;;;;;;16.40;58.80;;;;;;7322869;19;9279;-64
2024/01/13 09:28:18;;;;;;;;;;;16.40;58.70;;;;;;7323711;19;9226;-65
2024/01/13 09:30:49;;;;;;;;;;;16.40;58.60;;;;;;7322356;19;9035;-65
2024/01/13 09:33:18;;;;;;;;;;;16.50;58.50;;;;;;7323783;19;9217;-65
2024/01/13 09:35:47;;;;;;;;;;;16.60;58.40;;;;;;7321326;19;9678;-65
2024/01/13 09:38:16;;;;;;;;;;;16.70;58.40;;;;;;7323036;19;9281;-65
2024/01/13 09:40:46;;;;;;;;;;;16.70;58.40;;;;;;7322160;19;9467;-65
2024/01/13 09:43:26;;;;;;;;;;;16.80;58.30;;;;;;7323655;19;9455;-65
2024/01/13 09:46:18;;;;;;;;;;;16.90;58.30;;;;;;7321645;19;9358;-66
2024/01/13 09:48:50;;;;;;;;;;;16.90;58.90;;;;;;7321862;19;9465;-65
2024/01/13 09:51:20;;;;;;;;;;;17.00;58.10;;;;;;7323270;19;9219;-65
2024/01/13 09:53:57;;;;;;;;;;;17.10;58.10;;;;;;7322469;19;9160;-65
2024/01/13 09:56:34;;;;;;;;;;;17.10;58.00;;;;;;7322788;19;9244;-67
2024/01/13 09:59:04;;;;;;;;;;;17.20;58.00;;;;;;7322388;19;9464;-65
2024/01/13 10:01:35;;;;;;;;;;;17.20;57.80;;;;;;7321749;19;9226;-65
2024/01/13 10:04:05;;;;;;;;;;;17.20;57.80;;;;;;7323139;19;9229;-65
2024/01/13 10:06:35;;;;;;;;;;;17.30;57.70;;;;;;7321098;19;9344;-65
2024/01/13 10:09:05;;;;;;;;;;;17.30;57.70;;;;;;7321714;19;9540;-65
2024/01/13 10:11:35;;;;;;;;;;;17.30;57.60;;;;;;7319567;19;9134;-66
2024/01/13 10:14:05;;;;;;;;;;;17.30;57.60;;;;;;7322310;19;9110;-66
2024/01/13 10:16:38;;;;;;;;;;;17.30;57.50;;;;;;7322020;19;10530;-65
2024/01/13 10:19:08;;;;;;;;;;;17.30;57.50;;;;;;7322063;19;9511;-65
2024/01/13 10:21:38;;;;;;;;;;;17.20;57.50;;;;;;7322576;19;9590;-65
2024/01/13 10:24:07;;;;;;;;;;;17.20;58.20;;;;;;7322439;19;9540;-65
2024/01/13 10:26:36;;;;;;;;;;;17.20;57.60;;;;;;7322154;19;9175;-65
2024/01/13 10:29:05;;;;;;;;;;;17.10;57.60;;;;;;7320030;19;9392;-67
2024/01/13 10:31:38;;;;;;;;;;;17.10;57.60;;;;;;7322149;19;10455;-65
2024/01/13 10:34:11;;;;;;;;;;;17.10;57.70;;;;;;7322227;19;9371;-65
2024/01/13 10:36:41;;;;;;;;;;;17.10;57.80;;;;;;7321698;19;9205;-65
2024/01/13 10:39:10;;;;;;;;;;;17.00;57.70;;;;;;7319007;19;9448;-65
2024/01/13 10:42:00;;;;;;;;;;;17.00;57.70;;;;;;7318884;19;10186;-65
2024/01/13 10:44:32;;;;;;;;;;;17.00;57.90;;;;;;7319958;19;9307;-65
2024/01/13 10:47:06;;;;;;;;;;;16.90;57.80;;;;;;7320207;19;9284;-65
2024/01/13 10:49:36;;;;;;;;;;;16.90;58.00;;;;;;7321591;19;9223;-65
2024/01/13 10:52:32;;;;;;;;;;;16.90;58.00;;;;;;7319331;19;9538;-65
2024/01/13 10:55:04;;;;;;;;;;;16.80;57.90;;;;;;7320033;19;9590;-65
2024/01/13 10:57:36;;;;;;;;;;;16.90;58.10;;;;;;7320633;19;9377;-65
2024/01/13 11:00:10;;;;;;;;;;;16.80;58.20;;;;;;7320149;19;9421;-65
2024/01/13 11:02:44;;;;;;;;;;;16.80;58.20;;;;;;7319706;19;9382;-65
2024/01/13 11:05:17;;;;;;;;;;;16.70;58.10;;;;;;7320552;19;9301;-65
2024/01/13 11:07:46;;;;;;;;;;;16.70;58.10;;;;;;7320016;19;9485;-65
2024/01/13 11:10:25;;;;;;;;;;;16.70;58.20;;;;;;7320277;19;9555;-65
2024/01/13 11:13:04;;;;;;;;;;;16.70;59.00;;;;;;7319516;19;9123;-65
2024/01/13 11:15:40;;;;;;;;;;;16.70;58.30;;;;;;7321268;19;10372;-65
2024/01/13 11:18:15;;;;;;;;;;;16.60;58.30;;;;;;7319623;19;9606;-65
2024/01/13 11:21:01;;;;;;;;;;;16.60;58.30;;;;;;7320246;19;10381;-65
2024/01/13 11:23:30;;;;;;;;;;;16.60;58.50;;;;;;7319244;19;9557;-65
2024/01/13 11:25:59;;;;;;;;;;;16.60;58.40;;;;;;7319466;19;11130;-65
2024/01/13 11:28:44;;;;;;;;;;;16.60;58.50;;;;;;7319935;19;9238;-65
2024/01/13 11:31:29;;;;;;;;;;;16.60;58.50;;;;;;7320200;19;10844;-65
2024/01/13 11:34:03;;;;;;;;;;;16.60;58.50;;;;;;7319175;19;9180;-65
2024/01/13 11:36:34;;;;;;;;;;;16.60;58.50;;;;;;7318513;19;9512;-65
2024/01/13 11:39:05;;;;;;;;;;;16.60;58.50;;;;;;7318978;19;9474;-65
2024/01/13 11:41:41;;;;;;;;;;;16.60;58.50;;;;;;7320358;19;9296;-65
2024/01/13 11:44:11;;;;;;;;;;;16.50;58.50;;;;;;7318730;19;9642;-65
2024/01/13 11:46:47;;;;;;;;;;;16.50;58.40;;;;;;7319918;19;9273;-65
2024/01/13 11:49:31;;;;;;;;;;;16.50;58.50;;;;;;7320783;19;9122;-65
2024/01/13 11:52:02;;;;;;;;;;;16.50;58.60;;;;;;7317886;19;9234;-65
2024/01/13 11:54:31;;;;;;;;;;;16.50;58.60;;;;;;7319758;19;9186;-65
2024/01/13 11:57:02;;;;;;;;;;;16.40;58.60;;;;;;7317747;19;9327;-65
2024/01/13 11:59:31;;;;;;;;;;;16.50;58.60;;;;;;7318956;19;9332;-65
2024/01/13 12:02:01;;;;;;;;;;;16.40;58.70;;;;;;7319098;19;9193;-65
2024/01/13 12:04:36;;;;;;;;;;;16.40;58.70;;;;;;7321344;19;9664;-66
2024/01/13 12:07:08;;;;;;;;;;;16.40;59.40;;;;;;7325651;19;9329;-66
2024/01/13 12:09:57;;;;;;;;;;;16.40;58.80;;;;;;7322910;19;9249;-65
2024/01/13 12:12:26;;;;;;;;;;;16.40;58.80;;;;;;7325920;19;9249;-65
2024/01/13 12:14:55;;;;;;;;;;;16.40;58.80;;;;;;7324208;19;9222;-65
2024/01/13 12:17:24;;;;;;;;;;;16.40;58.80;;;;;;7327088;19;9250;-65
2024/01/13 12:19:55;;;;;;;;;;;16.40;58.70;;;;;;7325825;19;9183;-65
2024/01/13 12:22:24;;;;;;;;;;;16.40;58.80;;;;;;7326864;19;9287;-66
2024/01/13 12:24:53;;;;;;;;;;;16.40;58.90;;;;;;7331734;19;9243;-65
2024/01/13 12:27:24;;;;;;;;;;;16.40;58.80;;;;;;7325547;19;9274;-66
2024/01/13 12:29:58;;;;;;;;;;;16.40;58.70;;;;;;7326117;19;9232;-65
2024/01/13 12:32:48;;;;;;;;;;;16.40;58.60;;;;;;7324838;19;9320;-65
2024/01/13 12:35:20;;;;;;;;;;;16.50;58.60;;;;;;7325175;19;9366;-65
2024/01/13 12:37:49;;;;;;;;;;;16.60;58.50;;;;;;7324214;19;9196;-65
2024/01/13 12:40:18;;;;;;;;;;;16.60;58.40;;;;;;7322385;19;9647;-65
2024/01/13 12:42:47;;;;;;;;;;;16.70;58.50;;;;;;7325013;19;9786;-65
2024/01/13 12:45:16;;;;;;;;;;;16.80;58.40;;;;;;7322314;19;9189;-65
2024/01/13 12:47:47;;;;;;;;;;;16.80;58.40;;;;;;7324359;19;10449;-66
2024/01/13 12:50:16;;;;;;;;;;;16.90;58.30;;;;;;7323202;19;10428;-65
2024/01/13 12:52:48;;;;;;;;;;;17.00;58.20;;;;;;7324520;19;9352;-65
2024/01/13 12:55:17;;;;;;;;;;;17.00;58.10;;;;;;7323974;19;9277;-65
2024/01/13 12:57:46;;;;;;;;;;;17.10;58.20;;;;;;7325511;19;9605;-65
2024/01/13 13:00:16;;;;;;;;;;;17.10;58.00;;;;;;7323484;19;9261;-66
2024/01/13 13:02:46;;;;;;;;;;;17.20;58.00;;;;;;7324619;19;9325;-65
2024/01/13 13:05:15;;;;;;;;;;;17.20;57.90;;;;;;7324909;19;9180;-65
2024/01/13 13:07:47;;;;;;;;;;;17.20;57.80;;;;;;7322588;19;9178;-65
2024/01/13 13:10:36;;;;;;;;;;;17.20;57.70;;;;;;7322796;19;9273;-65
2024/01/13 13:13:06;;;;;;;;;;;17.30;57.70;;;;;;7323398;19;10162;-65
2024/01/13 13:15:35;;;;;;;;;;;17.30;57.70;;;;;;7322687;19;9201;-65
2024/01/13 13:18:03;;;;;;;;;;;17.30;57.60;;;;;;7322716;19;9534;-65
2024/01/13 13:20:33;;;;;;;;;;;17.30;57.50;;;;;;7323031;19;9218;-65
2024/01/13 13:23:06;;;;;;;;;;;17.30;57.50;;;;;;7322969;19;9519;-65
2024/01/13 13:25:36;;;;;;;;;;;17.30;57.50;;;;;;7322889;19;9229;-65
2024/01/13 13:28:06;;;;;;;;;;;17.20;57.50;;;;;;7323460;19;9145;-66
2024/01/13 13:30:35;;;;;;;;;;;17.20;57.50;;;;;;7321577;19;9479;-65
2024/01/13 13:33:05;;;;;;;;;;;17.20;58.30;;;;;;7322694;19;11180;-66
2024/01/13 13:35:34;;;;;;;;;;;17.20;57.70;;;;;;7320505;19;9274;-66
2024/01/13 13:38:06;;;;;;;;;;;17.20;57.80;;;;;;7322822;19;11194;-65
2024/01/13 13:40:36;;;;;;;;;;;17.10;57.80;;;;;;7321161;19;9174;-65
2024/01/13 13:43:05;;;;;;;;;;;17.10;57.90;;;;;;7323235;19;9285;-65
2024/01/13 13:45:34;;;;;;;;;;;17.10;57.90;;;;;;7320839;19;9481;-65
2024/01/13 13:48:04;;;;;;;;;;;17.10;58.00;;;;;;7322386;19;9467;-65
2024/01/13 13:50:34;;;;;;;;;;;17.00;58.00;;;;;;7319946;19;9546;-66
2024/01/13 13:53:06;;;;;;;;;;;17.00;58.10;;;;;;7321179;19;11686;-65
2024/01/13 13:55:36;;;;;;;;;;;17.00;58.10;;;;;;7323158;19;9191;-65
2024/01/13 13:58:05;;;;;;;;;;;17.00;58.20;;;;;;7318289;19;9475;-66
2024/01/13 14:00:34;;;;;;;;;;;16.90;58.30;;;;;;7323028;19;9526;-66
2024/01/13 14:03:03;;;;;;;;;;;16.90;58.30;;;;;;7322099;19;9629;-65
2024/01/13 14:05:32;;;;;;;;;;;16.90;58.30;;;;;;7321982;19;9275;-65
2024/01/13 14:08:01;;;;;;;;;;;16.90;58.40;;;;;;7320928;19;11161;-65
2024/01/13 14:10:33;;;;;;;;;;;16.90;58.50;;;;;;7322287;19;9566;-65
2024/01/13 14:13:02;;;;;;;;;;;16.80;58.40;;;;;;7320602;19;9536;-65
2024/01/13 14:15:31;;;;;;;;;;;16.80;58.40;;;;;;7322501;19;9175;-65
2024/01/13 14:18:00;;;;;;;;;;;16.80;58.40;;;;;;7321821;19;10320;-65
2024/01/13 14:20:29;;;;;;;;;;;16.80;58.50;;;;;;7321140;19;9462;-65
2024/01/13 14:22:58;;;;;;;;;;;16.70;58.50;;;;;;7322448;19;9413;-66
2024/01/13 14:25:29;;;;;;;;;;;16.70;58.50;;;;;;7321881;19;9471;-65
2024/01/13 14:28:00;;;;;;;;;;;16.70;58.50;;;;;;7319782;19;10562;-65
2024/01/13 14:30:29;;;;;;;;;;;16.70;58.60;;;;;;7321189;19;9447;-65
2024/01/13 14:32:59;;;;;;;;;;;16.60;58.70;;;;;;7321937;19;9174;-65
2024/01/13 14:35:29;;;;;;;;;;;16.60;58.60;;;;;;7321442;19;9314;-65
2024/01/13 14:37:57;;;;;;;;;;;16.60;58.70;;;;;;7321445;19;9615;-65
2024/01/13 14:40:46;;;;;;;;;;;16.60;58.70;;;;;;7319181;19;9515;-65
2024/01/13 14:43:18;;;;;;;;;;;16.60;58.90;;;;;;7321639;19;9494;-65
2024/01/13 14:45:47;;;;;;;;;;;16.60;58.90;;;;;;7320128;19;9469;-65
2024/01/13 14:48:17;;;;;;;;;;;16.60;59.00;;;;;;7321252;19;9287;-64
2024/01/13 14:50:49;;;;;;;;;;;16.50;58.80;;;;;;7320984;19;9289;-65